Terminal Aerodrome Forecast
Issued by NWS

Home | Current Version | Previous Version | Text Only | Print | Product List | Glossary On
Versions: 1 2 3 4 5 6 7 8 9 10 11 12 13 14
780
FTUS41 KBGM 200535
TAFITH
TAF
KITH 200535Z 2006/2106 32007KT P6SM SCT150
     FM200900 33007KT P6SM SCT025
      TEMPO 2009/2013 BKN025
     FM201300 34008KT P6SM SCT025
     FM202200 34005KT P6SM FEW200=

USA.gov is the U.S. government's official web portal to all federal, state and local government web resources and services.